createdAt,value
2018-09-19T00:00:42.546Z,95.48
2018-09-19T00:01:42.542Z,95.48
2018-09-19T00:02:42.534Z,95.73
2018-09-19T00:03:42.555Z,95.87
2018-09-19T00:04:42.587Z,95.98
2018-09-19T00:05:42.491Z,96.69
2018-09-19T00:06:42.488Z,96.99
2018-09-19T00:07:42.478Z,96.73
2018-09-19T00:08:42.469Z,97.44
2018-09-19T00:09:42.468Z,97.24
2018-09-19T00:10:42.488Z,97.34
2018-09-19T00:11:42.432Z,97.96
2018-09-19T00:12:42.427Z,97.80
2018-09-19T00:13:42.405Z,98.00
2018-09-19T00:14:42.410Z,97.89
2018-09-19T00:15:42.392Z,98.05
2018-09-19T00:16:42.408Z,97.44
2018-09-19T00:17:42.366Z,97.94
2018-09-19T00:18:42.362Z,98.66
2018-09-19T00:19:42.358Z,98.71
2018-09-19T00:20:42.337Z,99.07
2018-09-19T00:21:42.320Z,98.56
2018-09-19T00:22:42.357Z,98.52
2018-09-19T00:23:42.298Z,98.01
2018-09-19T00:24:42.330Z,97.56
2018-09-19T00:25:42.288Z,97.60
2018-09-19T00:26:42.274Z,96.64
2018-09-19T00:27:42.260Z,96.90
2018-09-19T00:28:42.306Z,95.89
2018-09-19T00:29:42.294Z,95.38
2018-09-19T00:30:42.234Z,95.73
2018-09-19T00:31:42.215Z,95.83
2018-09-19T00:32:42.200Z,95.94
2018-09-19T00:33:42.191Z,95.94
2018-09-19T00:34:42.344Z,95.57
2018-09-19T00:35:42.172Z,95.87
2018-09-19T00:36:42.167Z,96.38
2018-09-19T00:37:42.190Z,96.73
2018-09-19T00:38:42.136Z,96.94
2018-09-19T00:39:42.141Z,96.47
2018-09-19T00:40:42.160Z,96.58
2018-09-19T00:41:42.101Z,96.88
2018-09-19T00:42:42.094Z,97.39
2018-09-19T00:43:42.084Z,97.60
2018-09-19T00:44:42.087Z,98.30
2018-09-19T00:45:42.060Z,98.05
2018-09-19T00:46:42.120Z,97.94
2018-09-19T00:47:42.041Z,97.44
2018-09-19T00:48:42.027Z,97.84
2018-09-19T00:49:42.042Z,97.84
2018-09-19T00:50:42.015Z,98.14
2018-09-19T00:51:42.004Z,98.45
2018-09-19T00:52:42.017Z,98.60
2018-09-19T00:53:42.038Z,98.19
2018-09-19T00:54:41.991Z,98.09
2018-09-19T00:55:41.951Z,98.30
2018-09-19T00:56:41.945Z,98.09
2018-09-19T00:57:41.936Z,98.34
2018-09-19T00:58:41.986Z,98.95
2018-09-19T00:59:41.911Z,99.01
2018-09-19T01:00:41.941Z,98.91
2018-09-19T01:01:41.881Z,99.26
2018-09-19T01:02:41.879Z,99.05
2018-09-19T01:03:41.891Z,98.85
2018-09-19T01:04:41.874Z,99.36
2018-09-19T01:05:41.867Z,99.51
2018-09-19T01:06:41.836Z,99.16
2018-09-19T01:07:41.841Z,99.16
2018-09-19T01:08:41.817Z,99.10
2018-09-19T01:09:41.806Z,99.00
2018-09-19T01:10:41.811Z,99.41
2018-09-19T01:11:41.774Z,99.16
2018-09-19T01:12:41.811Z,99.41
2018-09-19T01:13:41.752Z,99.10
2018-09-19T01:14:41.755Z,99.30
2018-09-19T01:15:41.747Z,99.30
2018-09-19T01:16:41.743Z,99.71
2018-09-19T01:17:41.710Z,99.41
2018-09-19T01:18:41.733Z,99.71
2018-09-19T01:19:41.696Z,99.41
2018-09-19T01:20:41.695Z,99.99
2018-09-19T01:21:41.664Z,99.81
2018-09-19T01:22:41.664Z,99.87
2018-09-19T01:23:41.651Z,99.71
2018-09-19T01:24:41.674Z,99.81
2018-09-19T01:25:41.659Z,99.51
2018-09-19T01:26:41.618Z,99.61
2018-09-19T01:27:41.603Z,99.55
2018-09-19T01:28:41.590Z,99.81
2018-09-19T01:29:41.594Z,99.99
2018-09-19T01:30:41.632Z,99.81
2018-09-19T01:31:41.560Z,99.99
2018-09-19T01:32:41.545Z,99.99
2018-09-19T01:33:41.536Z,99.71
2018-09-19T01:34:41.529Z,99.99
2018-09-19T01:35:41.534Z,99.99
2018-09-19T01:36:41.550Z,99.99
2018-09-19T01:37:41.495Z,99.99
2018-09-19T01:38:41.487Z,99.91
2018-09-19T01:39:41.488Z,99.91
2018-09-19T01:40:41.472Z,99.99
2018-09-19T01:41:41.455Z,99.97
2018-09-19T01:42:41.564Z,99.99
2018-09-19T01:43:41.433Z,99.99
2018-09-19T01:44:41.413Z,99.99
2018-09-19T01:45:41.441Z,99.99
2018-09-19T01:46:41.400Z,99.87
2018-09-19T01:47:41.385Z,99.99
2018-09-19T01:48:41.463Z,99.99
2018-09-19T01:49:41.364Z,99.99
2018-09-19T01:50:41.347Z,99.99
2018-09-19T01:51:41.351Z,99.99
2018-09-19T01:52:41.326Z,99.99
2018-09-19T01:53:41.317Z,99.67
2018-09-19T01:54:41.327Z,99.77
2018-09-19T01:55:41.293Z,99.72
2018-09-19T01:56:41.297Z,99.72
2018-09-19T01:57:41.281Z,99.62
2018-09-19T01:58:41.259Z,99.31
2018-09-19T01:59:41.261Z,99.46
2018-09-19T02:00:41.265Z,99.36
2018-09-19T02:01:41.284Z,99.00
2018-09-19T02:02:41.216Z,98.59
2018-09-19T02:03:41.216Z,98.79
2018-09-19T02:04:41.238Z,98.94
2018-09-19T02:05:41.187Z,98.84
2018-09-19T02:06:41.190Z,98.64
2018-09-19T02:07:41.158Z,98.74
2018-09-19T02:08:41.159Z,98.48
2018-09-19T02:09:41.144Z,98.89
2018-09-19T02:10:41.170Z,98.99
2018-09-19T02:11:41.133Z,98.79
2018-09-19T02:12:41.111Z,99.19
2018-09-19T02:13:41.101Z,99.55
2018-09-19T02:14:41.096Z,99.66
2018-09-19T02:15:41.072Z,99.91
2018-09-19T02:16:41.176Z,99.61
2018-09-19T02:17:41.100Z,99.51
2018-09-19T02:18:41.046Z,99.45
2018-09-19T02:19:41.032Z,99.76
2018-09-19T02:20:41.021Z,99.60
2018-09-19T02:21:41.027Z,99.99
2018-09-19T02:22:41.038Z,99.99
2018-09-19T02:23:41.005Z,99.99
2018-09-19T02:24:40.981Z,99.99
2018-09-19T02:25:40.963Z,99.99
2018-09-19T02:26:40.973Z,99.57
2018-09-19T02:27:40.968Z,99.11
2018-09-19T02:28:41.090Z,98.30
2018-09-19T02:29:40.935Z,98.26
2018-09-19T02:30:40.927Z,96.94
2018-09-19T02:31:40.938Z,97.44
2018-09-19T02:32:40.885Z,96.73
2018-09-19T02:33:40.880Z,97.14
2018-09-19T02:34:40.873Z,96.43
2018-09-19T02:35:40.880Z,96.23
2018-09-19T02:36:40.845Z,95.62
2018-09-19T02:37:40.846Z,95.37
2018-09-19T02:38:40.830Z,94.80
2018-09-19T02:39:40.812Z,95.26
2018-09-19T02:40:40.821Z,94.80
2018-09-19T02:41:40.789Z,95.17
2018-09-19T02:42:40.881Z,95.10
2018-09-19T02:43:40.774Z,95.01
2018-09-19T02:44:40.759Z,95.15
2018-09-19T02:45:40.753Z,95.86
2018-09-19T02:46:40.743Z,96.01
2018-09-19T02:47:40.772Z,96.72
2018-09-19T02:48:40.753Z,97.13
2018-09-19T02:49:40.703Z,96.83
2018-09-19T02:50:40.703Z,96.26
2018-09-19T02:51:40.677Z,96.06
2018-09-19T02:52:40.687Z,95.75
2018-09-19T02:53:40.667Z,96.81
2018-09-19T02:54:40.713Z,96.61
2018-09-19T02:55:40.648Z,96.45
2018-09-19T02:56:40.625Z,96.55
2018-09-19T02:57:40.633Z,97.37
2018-09-19T02:58:40.605Z,98.08
2018-09-19T02:59:40.595Z,97.47
2018-09-19T03:00:40.653Z,97.78
2018-09-19T03:01:40.572Z,98.69
2018-09-19T03:02:40.583Z,98.85
2018-09-19T03:03:40.553Z,98.85
2018-09-19T03:04:40.548Z,98.95
2018-09-19T03:05:40.531Z,98.85
2018-09-19T03:06:40.578Z,98.75
2018-09-19T03:07:40.534Z,98.75
2018-09-19T03:08:40.501Z,98.65
2018-09-19T03:09:40.520Z,98.54
2018-09-19T03:10:40.480Z,98.59
2018-09-19T03:11:40.471Z,98.85
2018-09-19T03:12:40.517Z,98.54
2018-09-19T03:13:40.446Z,98.65
2018-09-19T03:14:40.428Z,98.59
2018-09-19T03:15:40.419Z,99.26
2018-09-19T03:16:40.400Z,99.16
2018-09-19T03:17:40.555Z,98.85
2018-09-19T03:18:40.437Z,98.79
2018-09-19T03:19:40.412Z,99.10
2018-09-19T03:20:40.383Z,98.79
2018-09-19T03:21:40.353Z,99.20
2018-09-19T03:22:40.402Z,99.10
2018-09-19T03:23:40.331Z,99.20
2018-09-19T03:24:40.391Z,99.10
2018-09-19T03:25:40.317Z,99.51
2018-09-19T03:26:40.301Z,99.41
2018-09-19T03:27:40.282Z,99.26
2018-09-19T03:28:40.288Z,99.05
2018-09-19T03:29:40.260Z,98.79
2018-09-19T03:30:40.300Z,98.69
2018-09-19T03:31:40.240Z,98.08
2018-09-19T03:32:40.231Z,97.67
2018-09-19T03:33:40.242Z,97.72
2018-09-19T03:34:40.212Z,97.72
2018-09-19T03:35:40.246Z,98.02
2018-09-19T03:36:40.184Z,97.92
2018-09-19T03:37:40.170Z,98.74
2018-09-19T03:38:40.229Z,98.94
2018-09-19T03:39:40.162Z,98.34
2018-09-19T03:40:40.137Z,97.63
2018-09-19T03:41:40.167Z,96.97
2018-09-19T03:42:40.116Z,96.67
2018-09-19T03:43:40.132Z,95.15
2018-09-19T03:44:40.104Z,93.73
2018-09-19T03:45:40.084Z,92.87
2018-09-19T03:46:40.135Z,94.34
2018-09-19T03:47:40.063Z,94.04
2018-09-19T03:48:40.075Z,93.77
2018-09-19T03:49:40.043Z,93.12
2018-09-19T03:50:40.036Z,92.71
2018-09-19T03:51:40.014Z,91.05
2018-09-19T03:52:40.057Z,91.14
2018-09-19T03:53:40.017Z,90.53
2018-09-19T03:54:39.985Z,90.29
2018-09-19T03:55:40.022Z,90.59
2018-09-19T03:56:39.964Z,89.98
2018-09-19T03:57:39.947Z,89.33
2018-09-19T03:58:40.133Z,90.35
2018-09-19T03:59:39.967Z,91.06
2018-09-19T04:00:39.966Z,91.20
2018-09-19T04:01:39.949Z,91.75
2018-09-19T04:02:39.892Z,92.16
2018-09-19T04:03:39.884Z,93.12
2018-09-19T04:04:39.959Z,93.77
2018-09-19T04:05:39.873Z,93.87
2018-09-19T04:06:39.868Z,93.67
2018-09-19T04:07:39.842Z,93.82
2018-09-19T04:08:39.827Z,93.82
2018-09-19T04:09:39.847Z,93.96
2018-09-19T04:10:39.862Z,94.92
2018-09-19T04:11:39.809Z,95.59
2018-09-19T04:12:39.781Z,96.15
2018-09-19T04:13:39.783Z,96.55
2018-09-19T04:14:39.887Z,97.37
2018-09-19T04:15:39.758Z,97.47
2018-09-19T04:16:39.803Z,97.37
2018-09-19T04:17:39.779Z,97.06
2018-09-19T04:18:39.722Z,97.31
2018-09-19T04:19:39.765Z,97.00
2018-09-19T04:20:39.717Z,97.21
2018-09-19T04:21:39.682Z,97.05
2018-09-19T04:22:39.720Z,97.31
2018-09-19T04:23:39.664Z,97.46
2018-09-19T04:24:39.665Z,97.56
2018-09-19T04:25:39.650Z,97.97
2018-09-19T04:26:39.639Z,98.94
2018-09-19T04:27:39.627Z,99.15
2018-09-19T04:28:39.659Z,99.15
2018-09-19T04:29:39.628Z,98.74
2018-09-19T04:30:39.594Z,98.99
2018-09-19T04:31:39.584Z,98.79
2018-09-19T04:32:39.570Z,98.64
2018-09-19T04:33:39.559Z,98.99
2018-09-19T04:34:39.594Z,98.89
2018-09-19T04:35:39.568Z,98.99
2018-09-19T04:36:39.556Z,98.68
2018-09-19T04:37:39.506Z,98.99
2018-09-19T04:38:39.503Z,99.09
2018-09-19T04:39:39.499Z,98.79
2018-09-19T04:40:39.617Z,99.70
2018-09-19T04:41:39.486Z,99.50
2018-09-19T04:42:39.451Z,99.50
2018-09-19T04:43:39.480Z,99.70
2018-09-19T04:44:39.479Z,99.50
2018-09-19T04:45:39.425Z,99.60
2018-09-19T04:46:39.506Z,99.50
2018-09-19T04:47:39.396Z,99.60
2018-09-19T04:48:39.410Z,99.99
2018-09-19T04:49:39.396Z,99.99
2018-09-19T04:50:39.377Z,99.60
2018-09-19T04:51:39.546Z,99.91
2018-09-19T04:52:39.374Z,99.70
2018-09-19T04:53:39.339Z,99.91
2018-09-19T04:54:39.323Z,99.99
2018-09-19T04:55:39.332Z,99.99
2018-09-19T04:56:39.973Z,99.99
2018-09-19T04:57:39.292Z,99.99
2018-09-19T04:58:39.307Z,99.99
2018-09-19T04:59:39.273Z,99.99
2018-09-19T05:00:39.301Z,99.99
2018-09-19T05:01:39.277Z,99.96
2018-09-19T05:02:39.252Z,99.99
2018-09-19T05:03:39.225Z,99.99
2018-09-19T05:04:39.253Z,99.99
2018-09-19T05:05:39.288Z,99.99
2018-09-19T05:06:39.202Z,99.99
2018-09-19T05:07:39.226Z,99.99
2018-09-19T05:08:39.187Z,99.99
2018-09-19T05:09:39.166Z,99.99
2018-09-19T05:10:39.243Z,99.86
2018-09-19T05:11:39.138Z,99.99
2018-09-19T05:12:39.128Z,99.99
2018-09-19T05:13:39.175Z,99.36
2018-09-19T05:14:39.100Z,99.26
2018-09-19T05:15:39.148Z,98.44
2018-09-19T05:16:39.081Z,97.23
2018-09-19T05:17:39.077Z,96.83
2018-09-19T05:18:39.068Z,96.46
2018-09-19T05:19:39.073Z,96.87
2018-09-19T05:20:39.053Z,96.67
2018-09-19T05:21:39.071Z,95.95
2018-09-19T05:22:39.050Z,96.06
2018-09-19T05:23:39.023Z,96.26
2018-09-19T05:24:38.993Z,96.41
2018-09-19T05:25:39.004Z,96.20
2018-09-19T05:26:38.980Z,96.30
2018-09-19T05:27:39.039Z,96.20
2018-09-19T05:28:38.962Z,96.76
2018-09-19T05:29:38.936Z,96.96
2018-09-19T05:30:38.940Z,97.16
2018-09-19T05:31:39.040Z,97.88
2018-09-19T05:32:38.921Z,97.63
2018-09-19T05:33:39.038Z,97.42
2018-09-19T05:34:38.886Z,97.93
2018-09-19T05:35:38.908Z,97.63
2018-09-19T05:36:38.934Z,97.53
2018-09-19T05:37:38.869Z,97.53
2018-09-19T05:38:38.872Z,96.81
2018-09-19T05:39:38.863Z,97.12
2018-09-19T05:40:38.820Z,97.06
2018-09-19T05:41:38.830Z,97.06
2018-09-19T05:42:38.794Z,96.87
2018-09-19T05:43:38.832Z,96.51
2018-09-19T05:44:38.780Z,96.46
2018-09-19T05:45:38.806Z,97.28
2018-09-19T05:46:38.771Z,95.91
2018-09-19T05:47:38.744Z,94.24
2018-09-19T05:48:38.749Z,93.38
2018-09-19T05:49:38.728Z,92.67
2018-09-19T05:50:38.707Z,92.47
2018-09-19T05:51:38.779Z,92.77
2018-09-19T05:52:38.691Z,92.93
2018-09-19T05:53:38.675Z,92.93
2018-09-19T05:54:38.706Z,92.97
2018-09-19T05:55:38.675Z,93.48
2018-09-19T05:56:38.675Z,93.79
2018-09-19T05:57:38.680Z,94.50
2018-09-19T05:58:38.621Z,94.25
2018-09-19T05:59:38.650Z,93.68
2018-09-19T06:00:38.600Z,94.60
2018-09-19T06:01:38.658Z,93.99
2018-09-19T06:02:38.584Z,92.63
2018-09-19T06:03:38.624Z,92.28
2018-09-19T06:04:38.559Z,89.96
2018-09-19T06:05:38.568Z,87.71
2018-09-19T06:06:38.579Z,84.69
2018-09-19T06:07:38.539Z,84.11
2018-09-19T06:08:38.516Z,82.14
2018-09-19T06:09:38.553Z,81.40
2018-09-19T06:10:38.501Z,82.23
2018-09-19T06:11:38.494Z,79.57
2018-09-19T06:12:38.475Z,79.06
2018-09-19T06:13:38.466Z,77.95
2018-09-19T06:14:38.442Z,76.67
2018-09-19T06:15:38.513Z,77.55
2018-09-19T06:16:38.450Z,77.91
2018-09-19T06:17:38.442Z,76.26
2018-09-19T06:18:38.406Z,74.32
2018-09-19T06:19:38.394Z,74.32
2018-09-19T06:20:38.407Z,73.88
2018-09-19T06:21:38.405Z,74.04
2018-09-19T06:22:38.375Z,74.35
2018-09-19T06:23:38.354Z,75.01
2018-09-19T06:24:38.340Z,75.58
2018-09-19T06:25:38.336Z,75.14
2018-09-19T06:26:38.320Z,74.94
2018-09-19T06:27:38.357Z,75.21
2018-09-19T06:28:38.298Z,70.86
2018-09-19T06:29:38.279Z,70.29
2018-09-19T06:30:38.268Z,71.09
2018-09-19T06:31:38.258Z,71.03
2018-09-19T06:32:38.275Z,70.93
2018-09-19T06:33:38.275Z,73.54
2018-09-19T06:34:38.237Z,72.03
2018-09-19T06:35:38.212Z,72.30
2018-09-19T06:36:38.209Z,70.79
2018-09-19T06:37:38.211Z,71.70
2018-09-19T06:38:38.177Z,70.73
2018-09-19T06:39:38.237Z,73.50
2018-09-19T06:40:38.267Z,71.00
2018-09-19T06:41:38.174Z,69.89
2018-09-19T06:42:38.159Z,72.03
2018-09-19T06:43:38.122Z,70.23
2018-09-19T06:44:38.112Z,70.46
2018-09-19T06:45:38.188Z,70.26
2018-09-19T06:46:38.095Z,72.00
2018-09-19T06:47:38.096Z,71.83
2018-09-19T06:48:38.075Z,72.30
2018-09-19T06:49:38.057Z,73.20
2018-09-19T06:50:38.051Z,73.16
2018-09-19T06:51:38.071Z,71.06
2018-09-19T06:52:38.044Z,71.69
2018-09-19T06:53:38.017Z,69.73
2018-09-19T06:54:38.008Z,69.53
2018-09-19T06:55:38.001Z,70.79
2018-09-19T06:56:38.062Z,71.09
2018-09-19T06:57:38.040Z,70.12
2018-09-19T06:58:37.963Z,73.13
2018-09-19T06:59:37.988Z,71.39
2018-09-19T07:00:37.944Z,70.79
2018-09-19T07:01:37.927Z,71.36
2018-09-19T07:02:37.949Z,70.99
2018-09-19T07:03:37.931Z,69.69
2018-09-19T07:04:37.897Z,67.06
2018-09-19T07:05:37.930Z,68.36
2018-09-19T07:06:37.871Z,68.69
2018-09-19T07:07:37.865Z,69.23
2018-09-19T07:08:37.865Z,68.82
2018-09-19T07:09:37.871Z,70.79
2018-09-19T07:10:37.870Z,69.53
2018-09-19T07:11:37.816Z,67.79
2018-09-19T07:12:37.806Z,68.82
2018-09-19T07:13:37.807Z,69.39
2018-09-19T07:14:37.780Z,66.56
2018-09-19T07:15:37.796Z,67.46
2018-09-19T07:16:37.761Z,67.26
2018-09-19T07:17:37.753Z,68.36
2018-09-19T07:18:37.775Z,68.99
2018-09-19T07:19:37.729Z,68.56
2018-09-19T07:20:37.722Z,67.60
2018-09-19T07:21:37.745Z,68.56
2018-09-19T07:22:37.695Z,66.39
2018-09-19T07:23:37.738Z,67.49
2018-09-19T07:24:37.674Z,68.10
2018-09-19T07:25:37.695Z,66.17
2018-09-19T07:26:37.653Z,66.20
2018-09-19T07:27:37.678Z,67.96
2018-09-19T07:28:38.013Z,67.07
2018-09-19T07:29:37.620Z,65.97
2018-09-19T07:30:37.608Z,66.36
2018-09-19T07:31:37.597Z,69.09
2018-09-19T07:32:37.588Z,65.17
2018-09-19T07:33:37.689Z,64.54
2018-09-19T07:34:37.566Z,63.22
2018-09-19T07:35:37.556Z,63.89
2018-09-19T07:36:37.553Z,63.69
2018-09-19T07:37:37.532Z,61.60
2018-09-19T07:38:37.536Z,60.24
2018-09-19T07:39:37.531Z,60.96
2018-09-19T07:40:37.505Z,63.15
2018-09-19T07:41:37.524Z,61.72
2018-09-19T07:42:37.479Z,64.91
2018-09-19T07:43:37.479Z,62.66
2018-09-19T07:44:37.458Z,61.47
2018-09-19T07:45:37.469Z,62.83
2018-09-19T07:46:37.460Z,62.70
2018-09-19T07:47:37.420Z,61.17
2018-09-19T07:48:37.424Z,62.76
2018-09-19T07:49:37.399Z,62.37
2018-09-19T07:50:37.395Z,63.36
2018-09-19T07:51:37.380Z,60.97
2018-09-19T07:52:37.378Z,61.96
2018-09-19T07:53:37.370Z,60.47
2018-09-19T07:54:37.406Z,61.57
2018-09-19T07:55:37.338Z,61.47
2018-09-19T07:56:37.323Z,62.96
2018-09-19T07:57:37.313Z,62.83
2018-09-19T07:58:37.343Z,62.18
2018-09-19T07:59:37.308Z,59.53
2018-09-19T08:00:37.387Z,59.44
2018-09-19T08:01:37.270Z,56.63
2018-09-19T08:02:37.256Z,57.20
2018-09-19T08:03:38.064Z,55.36
2018-09-19T08:04:37.234Z,57.12
2018-09-19T08:05:37.225Z,57.12
2018-09-19T08:06:37.211Z,57.02
2018-09-19T08:07:37.199Z,54.99
2018-09-19T08:08:37.191Z,57.97
2018-09-19T08:09:37.227Z,55.88
2018-09-19T08:10:37.170Z,59.15
2018-09-19T08:11:37.159Z,56.28
2018-09-19T08:12:37.150Z,54.89
2018-09-19T08:13:37.137Z,55.74
2018-09-19T08:14:37.143Z,58.22
2018-09-19T08:15:37.169Z,59.61
2018-09-19T08:16:37.110Z,55.56
2018-09-19T08:17:37.093Z,57.58
2018-09-19T08:18:37.084Z,53.72
2018-09-19T08:19:37.088Z,54.59
2018-09-19T08:20:37.108Z,52.31
2018-09-19T08:21:37.070Z,53.70
2018-09-19T08:22:37.113Z,53.47
2018-09-19T08:23:37.062Z,51.03
2018-09-19T08:24:37.031Z,52.39
2018-09-19T08:25:37.004Z,55.66
2018-09-19T08:26:36.994Z,54.61
2018-09-19T08:27:37.024Z,55.60
2018-09-19T08:28:36.972Z,54.98
2018-09-19T08:29:36.975Z,54.56
2018-09-19T08:30:36.949Z,52.95
2018-09-19T08:31:36.939Z,49.89
2018-09-19T08:32:36.927Z,50.78
2018-09-19T08:33:36.946Z,50.90
2018-09-19T08:34:36.920Z,54.04
2018-09-19T08:35:36.896Z,51.42
2018-09-19T08:36:36.884Z,52.09
2018-09-19T08:37:36.874Z,49.50
2018-09-19T08:38:36.863Z,50.21
2018-09-19T08:39:36.892Z,51.42
2018-09-19T08:40:36.847Z,49.84
2018-09-19T08:41:36.842Z,52.11
2018-09-19T08:42:36.824Z,50.02
2018-09-19T08:43:36.810Z,50.90
2018-09-19T08:44:36.815Z,48.24
2018-09-19T08:45:36.816Z,48.22
2018-09-19T08:46:36.797Z,50.93
2018-09-19T08:47:36.787Z,50.24
2018-09-19T08:48:36.776Z,47.56
2018-09-19T08:49:36.770Z,48.14
2018-09-19T08:50:36.786Z,50.49
2018-09-19T08:51:36.721Z,46.13
2018-09-19T08:52:36.711Z,46.23
2018-09-19T08:53:36.700Z,45.88
2018-09-19T08:54:36.730Z,48.05
2018-09-19T08:55:36.720Z,47.73
2018-09-19T08:56:36.670Z,48.61
2018-09-19T08:57:36.656Z,48.44
2018-09-19T08:58:36.648Z,47.78
2018-09-19T08:59:36.652Z,49.62
2018-09-19T09:00:36.625Z,50.98
2018-09-19T09:01:36.624Z,48.18
2018-09-19T09:02:36.686Z,48.37
2018-09-19T09:03:36.664Z,45.94
2018-09-19T09:04:36.606Z,45.86
2018-09-19T09:05:36.585Z,50.09
2018-09-19T09:06:36.571Z,47.12
2018-09-19T09:07:36.595Z,48.69
2018-09-19T09:08:36.561Z,48.63
2018-09-19T09:09:36.677Z,50.48
2018-09-19T09:10:36.572Z,51.54
2018-09-19T09:11:36.521Z,50.71
2018-09-19T09:12:36.531Z,49.79
2018-09-19T09:13:36.501Z,49.20
2018-09-19T09:14:36.489Z,48.10
2018-09-19T09:15:36.505Z,50.88
2018-09-19T09:16:36.487Z,49.26
2018-09-19T09:17:36.445Z,47.88
2018-09-19T09:18:36.453Z,48.00
2018-09-19T09:19:36.431Z,48.89
2018-09-19T09:20:36.558Z,49.85
2018-09-19T09:21:36.418Z,46.06
2018-09-19T09:22:36.406Z,49.90
2018-09-19T09:23:36.404Z,44.58
2018-09-19T09:24:36.382Z,52.45
2018-09-19T09:25:36.376Z,45.74
2018-09-19T09:26:36.357Z,47.86
2018-09-19T09:27:36.401Z,43.90
2018-09-19T09:28:36.360Z,44.35
2018-09-19T09:29:36.325Z,45.67
2018-09-19T09:30:36.328Z,44.32
2018-09-19T09:31:36.297Z,46.21
2018-09-19T09:32:36.302Z,48.05
2018-09-19T09:33:36.287Z,47.86
2018-09-19T09:34:36.330Z,45.87
2018-09-19T09:35:36.291Z,43.24
2018-09-19T09:36:36.255Z,47.80
2018-09-19T09:37:36.240Z,45.81
2018-09-19T09:38:36.265Z,45.23
2018-09-19T09:39:36.225Z,43.14
2018-09-19T09:40:36.332Z,45.62
2018-09-19T09:41:36.212Z,45.47
2018-09-19T09:42:36.197Z,49.18
2018-09-19T09:43:36.253Z,47.49
2018-09-19T09:44:36.192Z,44.66
2018-09-19T09:45:36.167Z,46.65
2018-09-19T09:46:36.162Z,48.00
2018-09-19T09:47:36.188Z,48.67
2018-09-19T09:48:36.119Z,49.97
2018-09-19T09:49:36.105Z,48.57
2018-09-19T09:50:36.114Z,45.94
2018-09-19T09:51:36.134Z,45.62
2018-09-19T09:52:36.079Z,46.92
2018-09-19T09:53:36.081Z,47.44
2018-09-19T09:54:36.065Z,47.51
2018-09-19T09:55:36.139Z,49.46
2018-09-19T09:56:36.049Z,48.33
2018-09-19T09:57:36.043Z,44.91
2018-09-19T09:58:36.035Z,48.67
2018-09-19T09:59:36.019Z,46.33
2018-09-19T10:00:36.004Z,47.53
2018-09-19T10:01:36.053Z,49.68
2018-09-19T10:02:36.013Z,48.61
2018-09-19T10:03:35.971Z,48.44
2018-09-19T10:04:35.972Z,47.69
2018-09-19T10:05:35.946Z,48.82
2018-09-19T10:06:36.018Z,46.36
2018-09-19T10:07:35.930Z,47.91
2018-09-19T10:08:35.941Z,44.55
2018-09-19T10:09:35.900Z,45.43
2018-09-19T10:10:35.896Z,45.99
2018-09-19T10:11:35.989Z,48.57
2018-09-19T10:12:35.889Z,47.73
2018-09-19T10:13:35.910Z,48.99
2018-09-19T10:14:35.869Z,53.27
2018-09-19T10:15:35.846Z,49.87
2018-09-19T10:16:35.846Z,47.77
2018-09-19T10:17:35.825Z,45.37
2018-09-19T10:18:35.863Z,47.37
2018-09-19T10:19:35.802Z,42.62
2018-09-19T10:20:35.826Z,43.60
2018-09-19T10:21:35.810Z,43.74
2018-09-19T10:22:35.840Z,46.02
2018-09-19T10:23:35.786Z,44.27
2018-09-19T10:24:35.753Z,44.87
2018-09-19T10:25:35.774Z,45.95
2018-09-19T10:26:35.757Z,46.46
2018-09-19T10:27:35.729Z,47.03
2018-09-19T10:28:35.788Z,47.20
2018-09-19T10:29:35.856Z,46.20
2018-09-19T10:30:35.693Z,48.43
2018-09-19T10:31:35.695Z,50.78
2018-09-19T10:32:35.684Z,47.94
2018-09-19T10:33:35.659Z,44.84
2018-09-19T10:34:35.676Z,48.18
2018-09-19T10:35:35.704Z,45.88
2018-09-19T10:36:35.624Z,45.29
2018-09-19T10:37:35.647Z,46.49
2018-09-19T10:38:35.614Z,46.56
2018-09-19T10:39:35.602Z,45.76
2018-09-19T10:40:35.584Z,44.19
2018-09-19T10:41:35.582Z,44.09
2018-09-19T10:42:35.629Z,44.51
2018-09-19T10:43:35.571Z,48.21
2018-09-19T10:44:35.553Z,44.19
2018-09-19T10:45:35.538Z,47.57
2018-09-19T10:46:35.533Z,42.65
2018-09-19T10:47:35.538Z,45.76
2018-09-19T10:48:35.570Z,43.29
2018-09-19T10:49:35.556Z,45.89
2018-09-19T10:50:35.491Z,41.84
2018-09-19T10:51:35.477Z,46.76
2018-09-19T10:52:35.465Z,46.76
2018-09-19T10:53:35.471Z,44.19
2018-09-19T10:54:35.460Z,47.69
2018-09-19T10:55:35.430Z,43.58
2018-09-19T10:56:35.434Z,45.64
2018-09-19T10:57:35.431Z,46.84
2018-09-19T10:58:35.432Z,44.48
2018-09-19T10:59:35.425Z,45.66
2018-09-19T11:00:35.443Z,44.88
2018-09-19T11:01:35.393Z,44.38
2018-09-19T11:02:35.451Z,44.24
2018-09-19T11:03:35.369Z,43.07
2018-09-19T11:04:35.343Z,44.12
2018-09-19T11:05:35.413Z,45.24
2018-09-19T11:06:35.323Z,48.06
2018-09-19T11:07:35.326Z,44.92
2018-09-19T11:08:35.328Z,46.08
2018-09-19T11:09:35.301Z,42.31
2018-09-19T11:10:35.281Z,45.23
2018-09-19T11:11:35.319Z,43.95
2018-09-19T11:12:35.258Z,42.58
2018-09-19T11:13:35.282Z,43.17
2018-09-19T11:14:35.273Z,42.78
2018-09-19T11:15:35.250Z,44.32
2018-09-19T11:16:35.232Z,42.93
2018-09-19T11:17:35.220Z,44.62
2018-09-19T11:18:35.235Z,44.03
2018-09-19T11:19:35.196Z,44.01
2018-09-19T11:20:35.185Z,42.25
2018-09-19T11:21:35.184Z,43.23
2018-09-19T11:22:35.163Z,43.01
2018-09-19T11:23:35.173Z,42.40
2018-09-19T11:24:35.292Z,43.42
2018-09-19T11:25:35.149Z,44.71
2018-09-19T11:26:35.187Z,39.84
2018-09-19T11:27:35.131Z,44.81
2018-09-19T11:28:35.139Z,41.88
2018-09-19T11:29:35.143Z,44.69
2018-09-19T11:30:35.085Z,41.86
2018-09-19T11:31:35.078Z,41.07
2018-09-19T11:32:35.077Z,43.91
2018-09-19T11:33:35.071Z,41.36
2018-09-19T11:34:35.047Z,39.92
2018-09-19T11:35:35.039Z,42.38
2018-09-19T11:36:35.101Z,42.29
2018-09-19T11:37:35.032Z,45.62
2018-09-19T11:38:35.031Z,45.03
2018-09-19T11:39:34.996Z,42.31
2018-09-19T11:40:34.996Z,42.02
2018-09-19T11:41:34.983Z,41.89
2018-09-19T11:42:34.954Z,41.89
2018-09-19T11:43:34.975Z,46.59
2018-09-19T11:44:34.955Z,45.15
2018-09-19T11:45:34.977Z,43.38
2018-09-19T11:46:34.990Z,42.52
2018-09-19T11:47:34.914Z,44.13
2018-09-19T11:48:35.049Z,45.26
2018-09-19T11:49:34.906Z,45.09
2018-09-19T11:50:34.880Z,44.02
2018-09-19T11:51:34.865Z,46.58
2018-09-19T11:52:34.863Z,46.31
2018-09-19T11:53:34.890Z,48.55
2018-09-19T11:54:34.837Z,45.01
2018-09-19T11:55:34.834Z,44.24
2018-09-19T11:56:34.824Z,45.92
2018-09-19T11:57:34.815Z,47.39
2018-09-19T11:58:34.812Z,44.98
2018-09-19T11:59:34.791Z,45.67
2018-09-19T12:00:34.821Z,45.16
2018-09-19T12:01:34.777Z,44.79
2018-09-19T12:02:34.757Z,46.78
2018-09-19T12:03:34.951Z,49.55
2018-09-19T12:04:34.742Z,50.61
2018-09-19T12:05:34.728Z,46.58
2018-09-19T12:06:34.727Z,45.03
2018-09-19T12:07:34.743Z,45.01
2018-09-19T12:08:34.752Z,47.29
2018-09-19T12:09:34.735Z,49.23
2018-09-19T12:10:34.670Z,49.46
2018-09-19T12:11:34.679Z,44.56
2018-09-19T12:12:34.654Z,45.05
2018-09-19T12:13:34.637Z,47.02
2018-09-19T12:14:34.662Z,45.74
2018-09-19T12:15:34.655Z,48.49
2018-09-19T12:16:34.599Z,48.67
2018-09-19T12:17:34.609Z,44.24
2018-09-19T12:18:34.593Z,46.11
2018-09-19T12:19:34.598Z,44.54
2018-09-19T12:20:34.566Z,49.97
2018-09-19T12:21:34.553Z,46.31
2018-09-19T12:22:34.550Z,45.25
2018-09-19T12:23:34.544Z,44.76
2018-09-19T12:24:34.526Z,42.18
2018-09-19T12:25:34.510Z,46.03
2018-09-19T12:26:34.589Z,47.91
2018-09-19T12:27:34.490Z,43.77
2018-09-19T12:28:34.477Z,42.79
2018-09-19T12:29:34.508Z,46.90
2018-09-19T12:30:34.483Z,44.17
2018-09-19T12:31:34.441Z,46.03
2018-09-19T12:32:34.431Z,44.88
2018-09-19T12:33:34.441Z,46.77
2018-09-19T12:34:34.432Z,47.73
2018-09-19T12:35:34.400Z,49.80
2018-09-19T12:36:34.404Z,47.83
2018-09-19T12:37:34.445Z,48.22
2018-09-19T12:38:34.389Z,45.74
2018-09-19T12:39:34.413Z,44.46
2018-09-19T12:40:34.399Z,47.71
2018-09-19T12:41:34.439Z,48.30
2018-09-19T12:42:34.357Z,45.25
2018-09-19T12:43:34.340Z,49.80
2018-09-19T12:44:34.345Z,46.25
2018-09-19T12:45:34.316Z,45.68
2018-09-19T12:46:34.289Z,45.59
2018-09-19T12:47:34.290Z,47.85
2018-09-19T12:48:34.272Z,44.90
2018-09-19T12:49:34.311Z,44.60
2018-09-19T12:50:34.247Z,48.54
2018-09-19T12:51:34.248Z,44.11
2018-09-19T12:52:34.734Z,46.67